Time;durP1;ratioP1;P1;durP2;ratioP2;P2;SDS_P1;SDS_P2;PMS_P1;PMS_P2;Temp;Humidity;BMP_temperature;BMP_pressure;BME280_temperature;BME280_humidity;BME280_pressure;Samples;Min_cycle;Max_cycle;Signal;HPM_P1;HPM_P2
2022/04/11 00:00:50;;;;;;;10.00;5.57;;;;;;;;;;5013468;28;92449;-72
2022/04/11 00:03:16;;;;;;;10.05;5.82;;;;;;;;;;4994406;28;93328;-72
2022/04/11 00:05:43;;;;;;;8.95;5.88;;;;;;;;;;4991097;28;95948;-72
2022/04/11 00:08:09;;;;;;;6.90;6.10;;;;;;;;;;4994513;28;95784;-72
2022/04/11 00:10:36;;;;;;;8.77;5.88;;;;;;;;;;4993091;28;94020;-72
2022/04/11 00:13:03;;;;;;;14.43;6.85;;;;;;;;;;4992911;28;92454;-72
2022/04/11 00:15:34;;;;;;;19.80;6.97;;;;;;;;;;4994499;28;93332;-72
2022/04/11 00:18:01;;;;;;;13.57;6.32;;;;;;;;;;4993317;28;93117;-72
2022/04/11 00:20:28;;;;;;;10.25;7.13;;;;;;;;;;4993781;28;92694;-72
2022/04/11 00:22:55;;;;;;;10.48;7.75;;;;;;;;;;4997341;28;94258;-72
2022/04/11 00:25:21;;;;;;;8.85;6.65;;;;;;;;;;4993185;28;92500;-72
2022/04/11 00:27:48;;;;;;;10.93;6.60;;;;;;;;;;4993936;28;93814;-72
2022/04/11 00:30:14;;;;;;;13.68;7.95;;;;;;;;;;4994468;28;98088;-72
2022/04/11 00:32:43;;;;;;;9.57;7.00;;;;;;;;;;5012333;28;94189;-72
2022/04/11 00:35:11;;;;;;;7.60;6.85;;;;;;;;;;5008665;28;93788;-72
2022/04/11 00:37:37;;;;;;;10.38;7.25;;;;;;;;;;4992026;28;95802;-73
2022/04/11 00:40:05;;;;;;;9.05;7.00;;;;;;;;;;4992992;28;92553;-72
2022/04/11 00:42:32;;;;;;;10.57;6.65;;;;;;;;;;4996535;28;93735;-72
2022/04/11 00:45:01;;;;;;;16.92;7.00;;;;;;;;;;4981436;28;92900;-72
2022/04/11 00:47:28;;;;;;;8.98;6.78;;;;;;;;;;4973743;28;92893;-73
2022/04/11 00:49:57;;;;;;;13.98;6.95;;;;;;;;;;4974060;28;94922;-72
2022/04/11 00:52:24;;;;;;;7.10;6.22;;;;;;;;;;4994036;28;92696;-72
2022/04/11 00:54:51;;;;;;;8.35;6.05;;;;;;;;;;4991843;28;95276;-72
2022/04/11 00:57:18;;;;;;;15.90;6.57;;;;;;;;;;4992942;28;93079;-72
2022/04/11 00:59:44;;;;;;;7.07;5.72;;;;;;;;;;5008774;28;92847;-72
2022/04/11 01:02:10;;;;;;;10.43;6.28;;;;;;;;;;5013185;28;92806;-73
2022/04/11 01:04:38;;;;;;;11.43;5.97;;;;;;;;;;5000325;28;93103;-73
2022/04/11 01:07:08;;;;;;;8.50;6.50;;;;;;;;;;4992052;28;95766;-73
2022/04/11 01:09:34;;;;;;;14.15;5.85;;;;;;;;;;4992021;28;93071;-72
2022/04/11 01:12:02;;;;;;;5.97;5.32;;;;;;;;;;4994334;28;91733;-73
2022/04/11 01:14:28;;;;;;;6.82;5.55;;;;;;;;;;4991188;28;94083;-73
2022/04/11 01:16:57;;;;;;;7.55;5.45;;;;;;;;;;4992939;28;93290;-73
2022/04/11 01:19:23;;;;;;;11.45;5.20;;;;;;;;;;4991000;28;94855;-73
2022/04/11 01:21:50;;;;;;;6.63;4.40;;;;;;;;;;5007143;28;95117;-73
2022/04/11 01:24:18;;;;;;;9.30;5.00;;;;;;;;;;5001393;28;96231;-73
2022/04/11 01:26:46;;;;;;;10.20;4.60;;;;;;;;;;4994858;28;92579;-73
2022/04/11 01:29:13;;;;;;;5.75;4.55;;;;;;;;;;4993182;28;95102;-72
2022/04/11 01:31:39;;;;;;;8.23;4.30;;;;;;;;;;5013023;28;92532;-72
2022/04/11 01:34:05;;;;;;;12.90;5.00;;;;;;;;;;5010316;28;92897;-73
2022/04/11 01:36:32;;;;;;;7.32;4.82;;;;;;;;;;5011421;28;94120;-72
2022/04/11 01:38:59;;;;;;;7.70;4.97;;;;;;;;;;5011794;28;92901;-73
2022/04/11 01:41:26;;;;;;;5.45;4.80;;;;;;;;;;5012176;28;92463;-72
2022/04/11 01:43:53;;;;;;;5.45;4.57;;;;;;;;;;5009419;28;98298;-72
2022/04/11 01:46:19;;;;;;;6.53;4.88;;;;;;;;;;5009594;28;93591;-73
2022/04/11 01:48:48;;;;;;;5.85;4.63;;;;;;;;;;5013170;28;95521;-72
2022/04/11 01:51:15;;;;;;;7.28;4.53;;;;;;;;;;5011029;28;92516;-72
2022/04/11 01:53:41;;;;;;;7.25;4.15;;;;;;;;;;5011277;28;92976;-72
2022/04/11 01:56:10;;;;;;;5.35;3.88;;;;;;;;;;5011339;28;93073;-72
2022/04/11 01:58:37;;;;;;;8.13;4.55;;;;;;;;;;5002989;28;94515;-72
2022/04/11 02:01:04;;;;;;;6.45;4.63;;;;;;;;;;5012047;28;95491;-74
2022/04/11 02:03:33;;;;;;;7.53;4.13;;;;;;;;;;5009708;28;96166;-72
2022/04/11 02:05:59;;;;;;;5.18;4.68;;;;;;;;;;5009651;28;92570;-72
2022/04/11 02:08:26;;;;;;;7.85;4.82;;;;;;;;;;5009352;28;94835;-72
2022/04/11 02:10:58;;;;;;;7.57;4.80;;;;;;;;;;5014414;28;95511;-72
2022/04/11 02:13:24;;;;;;;4.43;4.00;;;;;;;;;;5009264;28;95429;-72
2022/04/11 02:15:51;;;;;;;8.25;3.92;;;;;;;;;;5010838;28;94875;-72
2022/04/11 02:18:19;;;;;;;5.47;3.42;;;;;;;;;;5005298;28;92491;-72
2022/04/11 02:20:45;;;;;;;4.03;3.72;;;;;;;;;;5012026;28;94101;-72
2022/04/11 02:23:11;;;;;;;3.83;3.25;;;;;;;;;;5010818;28;94450;-71
2022/04/11 02:25:40;;;;;;;10.15;3.70;;;;;;;;;;5010471;28;91850;-72
2022/04/11 02:28:07;;;;;;;5.75;3.92;;;;;;;;;;5011261;28;94323;-72
2022/04/11 02:30:33;;;;;;;7.35;3.83;;;;;;;;;;5010648;28;94145;-72
2022/04/11 02:33:00;;;;;;;9.88;4.00;;;;;;;;;;5013313;28;94864;-72
2022/04/11 02:35:27;;;;;;;4.32;3.35;;;;;;;;;;5009147;28;94655;-72
2022/04/11 02:37:53;;;;;;;6.40;4.00;;;;;;;;;;5011143;28;92559;-72
2022/04/11 02:40:21;;;;;;;4.50;3.78;;;;;;;;;;5009062;28;95099;-72
2022/04/11 02:43:03;;;;;;;5.15;4.15;;;;;;;;;;5010864;28;94311;-72
2022/04/11 02:45:32;;;;;;;4.95;3.67;;;;;;;;;;4998051;28;92585;-72
2022/04/11 02:48:04;;;;;;;4.25;3.75;;;;;;;;;;5010454;28;94271;-72
2022/04/11 02:50:35;;;;;;;6.20;3.70;;;;;;;;;;5009570;28;92454;-72
2022/04/11 02:53:05;;;;;;;7.55;3.90;;;;;;;;;;5014129;28;92543;-72
2022/04/11 02:55:32;;;;;;;4.22;3.40;;;;;;;;;;5008183;28;96209;-72
2022/04/11 02:57:58;;;;;;;9.43;4.13;;;;;;;;;;5008188;28;94965;-72
2022/04/11 03:00:25;;;;;;;6.93;3.83;;;;;;;;;;5010832;28;97897;-72
2022/04/11 03:02:55;;;;;;;4.13;3.83;;;;;;;;;;5014016;28;95200;-72
2022/04/11 03:05:24;;;;;;;7.15;4.13;;;;;;;;;;5013487;28;93016;-72
2022/04/11 03:07:53;;;;;;;4.30;3.90;;;;;;;;;;5013608;28;94478;-72
2022/04/11 03:10:19;;;;;;;6.15;3.67;;;;;;;;;;5012788;28;95853;-72
2022/04/11 03:12:50;;;;;;;8.05;4.68;;;;;;;;;;5012916;28;92507;-72
2022/04/11 03:15:17;;;;;;;9.13;4.40;;;;;;;;;;5014733;28;95005;-72
2022/04/11 03:17:44;;;;;;;5.28;4.30;;;;;;;;;;5013977;28;92506;-72
2022/04/11 03:20:13;;;;;;;4.40;4.00;;;;;;;;;;5012685;28;95269;-72
2022/04/11 03:22:42;;;;;;;5.88;4.15;;;;;;;;;;5011156;28;98322;-72
2022/04/11 03:25:09;;;;;;;6.20;4.28;;;;;;;;;;5011202;28;93586;-72
2022/04/11 03:27:39;;;;;;;7.47;4.03;;;;;;;;;;5013591;28;92894;-72
2022/04/11 03:30:05;;;;;;;6.75;4.07;;;;;;;;;;5011574;28;95616;-72
2022/04/11 03:32:34;;;;;;;6.13;4.45;;;;;;;;;;5013552;28;92497;-72
2022/04/11 03:35:03;;;;;;;5.50;4.57;;;;;;;;;;5012312;28;93812;-72
2022/04/11 03:37:30;;;;;;;10.45;4.63;;;;;;;;;;5015745;28;95643;-72
2022/04/11 03:40:04;;;;;;;9.75;4.30;;;;;;;;;;5011782;28;93586;-72
2022/04/11 03:42:30;;;;;;;7.05;4.18;;;;;;;;;;5014373;28;92581;-72
2022/04/11 03:44:57;;;;;;;6.60;3.65;;;;;;;;;;5011723;28;92511;-71
2022/04/11 03:47:23;;;;;;;9.23;4.65;;;;;;;;;;5011751;28;94976;-72
2022/04/11 03:49:49;;;;;;;9.20;4.22;;;;;;;;;;4999554;28;95354;-72
2022/04/11 03:52:24;;;;;;;5.07;4.13;;;;;;;;;;4993129;28;92550;-72
2022/04/11 03:54:52;;;;;;;7.40;4.35;;;;;;;;;;5003766;28;95232;-72
2022/04/11 03:57:19;;;;;;;11.63;4.13;;;;;;;;;;5012673;28;95032;-72
2022/04/11 03:59:49;;;;;;;5.90;3.95;;;;;;;;;;5015312;28;92556;-73
2022/04/11 04:02:15;;;;;;;9.55;5.18;;;;;;;;;;5013218;28;95608;-72
2022/04/11 04:04:41;;;;;;;5.30;4.72;;;;;;;;;;5011565;28;91845;-72
2022/04/11 04:07:09;;;;;;;6.68;4.57;;;;;;;;;;5013129;28;93312;-72
2022/04/11 04:09:35;;;;;;;17.48;4.97;;;;;;;;;;5010160;28;95282;-72
2022/04/11 04:12:02;;;;;;;8.73;6.10;;;;;;;;;;5011062;28;94963;-72
2022/04/11 04:14:37;;;;;;;7.78;4.90;;;;;;;;;;5011640;28;98682;-72
2022/04/11 04:17:05;;;;;;;7.57;5.57;;;;;;;;;;5013082;28;94300;-72
2022/04/11 04:19:41;;;;;;;5.60;5.10;;;;;;;;;;5010898;28;92846;-72
2022/04/11 04:22:12;;;;;;;14.48;5.53;;;;;;;;;;5016240;28;95129;-72
2022/04/11 04:24:40;;;;;;;8.10;5.20;;;;;;;;;;5012622;28;92514;-72
2022/04/11 04:27:08;;;;;;;6.38;4.80;;;;;;;;;;5013224;28;94955;-72
2022/04/11 04:29:36;;;;;;;5.93;4.95;;;;;;;;;;5011800;28;94767;-72
2022/04/11 04:32:03;;;;;;;9.70;5.00;;;;;;;;;;5010653;28;92468;-72
2022/04/11 04:34:31;;;;;;;9.10;4.65;;;;;;;;;;5012468;28;94866;-72
2022/04/11 04:36:59;;;;;;;6.65;4.93;;;;;;;;;;5009563;28;98164;-72
2022/04/11 04:39:25;;;;;;;7.70;5.72;;;;;;;;;;4972267;28;92880;-72
2022/04/11 04:41:53;;;;;;;6.03;5.05;;;;;;;;;;4973157;28;94570;-72
2022/04/11 04:44:22;;;;;;;9.65;5.68;;;;;;;;;;5010465;28;95819;-72
2022/04/11 04:46:53;;;;;;;9.02;5.38;;;;;;;;;;4988975;28;95105;-72
2022/04/11 04:49:37;;;;;;;13.90;4.65;;;;;;;;;;4972222;28;95225;-72
2022/04/11 04:52:06;;;;;;;8.32;5.03;;;;;;;;;;5005665;28;92896;-72
2022/04/11 04:54:38;;;;;;;6.18;4.85;;;;;;;;;;5025432;28;93986;-72
2022/04/11 04:57:05;;;;;;;9.15;5.03;;;;;;;;;;4992453;28;95146;-72
2022/04/11 04:59:32;;;;;;;7.65;5.45;;;;;;;;;;5010073;28;92586;-72
2022/04/11 05:02:04;;;;;;;11.77;5.70;;;;;;;;;;5010194;28;95431;-72
2022/04/11 05:04:32;;;;;;;13.07;4.90;;;;;;;;;;5013709;28;95795;-72
2022/04/11 05:06:58;;;;;;;8.65;5.50;;;;;;;;;;5010929;28;95634;-72
2022/04/11 05:09:26;;;;;;;11.30;5.80;;;;;;;;;;5004676;28;93273;-72
2022/04/11 05:11:53;;;;;;;8.32;5.70;;;;;;;;;;4992407;28;92504;-72
2022/04/11 05:14:22;;;;;;;7.60;5.50;;;;;;;;;;5010958;28;92869;-72
2022/04/11 05:16:49;;;;;;;5.95;5.35;;;;;;;;;;5012228;28;95179;-72
2022/04/11 05:19:19;;;;;;;7.22;5.40;;;;;;;;;;5011616;28;92470;-72
2022/04/11 05:21:45;;;;;;;9.88;6.00;;;;;;;;;;5010688;28;94297;-73
2022/04/11 05:24:12;;;;;;;6.53;5.93;;;;;;;;;;5010684;28;94212;-72
2022/04/11 05:26:38;;;;;;;9.68;5.47;;;;;;;;;;5013642;28;94815;-72
2022/04/11 05:29:06;;;;;;;8.98;6.07;;;;;;;;;;5009999;28;93195;-72
2022/04/11 05:31:34;;;;;;;11.02;6.38;;;;;;;;;;5012283;28;92415;-72
2022/04/11 05:34:01;;;;;;;12.05;6.00;;;;;;;;;;4999125;28;92792;-72
2022/04/11 05:36:29;;;;;;;6.15;5.50;;;;;;;;;;4991075;28;94148;-72
2022/04/11 05:38:56;;;;;;;17.92;6.03;;;;;;;;;;5003477;28;94214;-72
2022/04/11 05:41:23;;;;;;;14.85;6.13;;;;;;;;;;5013195;28;93820;-72
2022/04/11 05:43:52;;;;;;;11.65;6.38;;;;;;;;;;5010314;28;94788;-72
2022/04/11 05:46:23;;;;;;;10.57;6.20;;;;;;;;;;4999289;28;92598;-72
2022/04/11 05:48:58;;;;;;;6.47;5.65;;;;;;;;;;5002919;28;94837;-71
2022/04/11 05:51:26;;;;;;;9.77;6.32;;;;;;;;;;4991093;28;94879;-71
2022/04/11 05:53:53;;;;;;;9.02;6.05;;;;;;;;;;5003682;28;97473;-71
2022/04/11 05:56:19;;;;;;;8.30;6.40;;;;;;;;;;5012525;28;92945;-71
2022/04/11 05:58:46;;;;;;;11.75;6.85;;;;;;;;;;4993325;28;92877;-72
2022/04/11 06:01:12;;;;;;;14.63;6.22;;;;;;;;;;4988150;28;93244;-71
2022/04/11 06:03:38;;;;;;;6.55;5.82;;;;;;;;;;4985816;28;93304;-71
2022/04/11 06:06:05;;;;;;;11.75;6.15;;;;;;;;;;4987077;28;93906;-71
2022/04/11 06:08:32;;;;;;;16.83;8.05;;;;;;;;;;4991532;28;95752;-72
2022/04/11 06:10:58;;;;;;;14.18;7.32;;;;;;;;;;4994124;28;92859;-71
2022/04/11 06:13:25;;;;;;;8.30;6.53;;;;;;;;;;5003415;28;95425;-72
2022/04/11 06:15:55;;;;;;;8.48;7.78;;;;;;;;;;4989573;28;97908;-72
2022/04/11 06:18:22;;;;;;;17.08;7.68;;;;;;;;;;4985526;28;93481;-73
2022/04/11 06:20:49;;;;;;;16.83;7.53;;;;;;;;;;4989551;28;93108;-73
2022/04/11 06:23:17;;;;;;;12.60;7.60;;;;;;;;;;5001677;28;94630;-72
2022/04/11 06:25:43;;;;;;;9.00;5.80;;;;;;;;;;4988002;28;93803;-72
2022/04/11 06:28:10;;;;;;;12.02;7.30;;;;;;;;;;4987014;28;95739;-72
2022/04/11 06:30:36;;;;;;;8.45;7.15;;;;;;;;;;5003920;28;95841;-73
2022/04/11 06:33:03;;;;;;;10.27;7.13;;;;;;;;;;4975286;28;91842;-73
2022/04/11 06:35:30;;;;;;;11.52;7.05;;;;;;;;;;5007699;28;95135;-73
2022/04/11 06:37:57;;;;;;;9.85;6.45;;;;;;;;;;4974473;28;92660;-73
2022/04/11 06:40:23;;;;;;;8.23;6.57;;;;;;;;;;4972530;28;95714;-73
2022/04/11 06:42:50;;;;;;;15.45;6.93;;;;;;;;;;4974580;28;94859;-73
2022/04/11 06:45:45;;;;;;;15.70;6.90;;;;;;;;;;4955147;28;92638;-73
2022/04/11 06:48:13;;;;;;;17.77;6.53;;;;;;;;;;4974924;28;94899;-73
2022/04/11 06:50:40;;;;;;;10.90;6.88;;;;;;;;;;4989653;28;93381;-73
2022/04/11 06:53:07;;;;;;;32.55;7.57;;;;;;;;;;4995314;28;92465;-73
2022/04/11 06:55:33;;;;;;;8.05;6.68;;;;;;;;;;4998504;28;94106;-73
2022/04/11 06:57:59;;;;;;;12.73;7.40;;;;;;;;;;4996245;28;92346;-73
2022/04/11 07:00:26;;;;;;;12.90;7.22;;;;;;;;;;4995251;28;93486;-73
2022/04/11 07:02:52;;;;;;;16.80;7.10;;;;;;;;;;4995691;28;94126;-73
2022/04/11 07:05:19;;;;;;;10.52;7.03;;;;;;;;;;4993839;28;94879;-74
2022/04/11 07:07:45;;;;;;;12.75;6.75;;;;;;;;;;4994537;28;95278;-73
2022/04/11 07:10:12;;;;;;;11.60;7.53;;;;;;;;;;4995235;28;93470;-73
2022/04/11 07:12:41;;;;;;;12.88;7.70;;;;;;;;;;4995462;28;92594;-73
2022/04/11 07:15:08;;;;;;;13.02;6.50;;;;;;;;;;4997891;28;93022;-73
2022/04/11 07:17:35;;;;;;;7.90;7.15;;;;;;;;;;4995461;28;92933;-73
2022/04/11 07:20:02;;;;;;;12.05;7.47;;;;;;;;;;4995479;28;93818;-73
2022/04/11 07:22:28;;;;;;;9.77;7.00;;;;;;;;;;4995086;28;93604;-73
2022/04/11 07:24:55;;;;;;;6.80;6.10;;;;;;;;;;5009812;28;94064;-74
2022/04/11 07:27:21;;;;;;;10.38;7.05;;;;;;;;;;5015235;28;93745;-74
2022/04/11 07:29:47;;;;;;;9.07;6.30;;;;;;;;;;5012949;28;96445;-73
2022/04/11 07:32:14;;;;;;;7.32;5.65;;;;;;;;;;4982631;28;92482;-73
2022/04/11 07:34:40;;;;;;;7.78;5.25;;;;;;;;;;4994371;28;94147;-73
2022/04/11 07:37:07;;;;;;;8.45;6.72;;;;;;;;;;4988491;28;96376;-74
2022/04/11 07:39:35;;;;;;;10.85;6.07;;;;;;;;;;4974885;28;93960;-73
2022/04/11 07:42:01;;;;;;;8.35;6.90;;;;;;;;;;4974785;28;94262;-73
2022/04/11 07:44:27;;;;;;;9.88;6.05;;;;;;;;;;4974474;28;92408;-73
2022/04/11 07:46:54;;;;;;;8.93;6.30;;;;;;;;;;4975766;28;94190;-74
2022/04/11 07:49:20;;;;;;;7.72;6.32;;;;;;;;;;4978804;28;94445;-73
2022/04/11 07:51:47;;;;;;;8.77;5.65;;;;;;;;;;4995253;28;92467;-74
2022/04/11 07:54:13;;;;;;;8.02;6.72;;;;;;;;;;4993464;28;94854;-74
2022/04/11 07:56:39;;;;;;;9.07;6.22;;;;;;;;;;4990531;28;95057;-73
2022/04/11 07:59:06;;;;;;;8.63;6.43;;;;;;;;;;4985737;28;92470;-72
2022/04/11 08:01:32;;;;;;;7.50;5.80;;;;;;;;;;4994663;28;94494;-73
2022/04/11 08:03:58;;;;;;;9.15;6.20;;;;;;;;;;4979922;28;92823;-73
2022/04/11 08:06:25;;;;;;;9.35;6.10;;;;;;;;;;4974677;28;92976;-73
2022/04/11 08:08:51;;;;;;;6.60;6.00;;;;;;;;;;4994497;28;94623;-73
2022/04/11 08:11:18;;;;;;;9.20;5.80;;;;;;;;;;4994567;28;91642;-73
2022/04/11 08:13:47;;;;;;;7.70;5.70;;;;;;;;;;4994984;28;93399;-73
2022/04/11 08:16:13;;;;;;;9.52;6.47;;;;;;;;;;4994371;28;94142;-73
2022/04/11 08:18:40;;;;;;;8.00;5.55;;;;;;;;;;4991498;28;94832;-73
2022/04/11 08:21:06;;;;;;;9.88;6.07;;;;;;;;;;4997318;28;96366;-73
2022/04/11 08:23:32;;;;;;;8.13;6.40;;;;;;;;;;4994525;28;92425;-73
2022/04/11 08:25:59;;;;;;;11.38;6.60;;;;;;;;;;4993904;28;92881;-73
2022/04/11 08:28:26;;;;;;;8.45;6.22;;;;;;;;;;4994205;28;93211;-73
2022/04/11 08:30:52;;;;;;;8.70;6.50;;;;;;;;;;4993899;28;92922;-73
2022/04/11 08:33:18;;;;;;;10.30;6.32;;;;;;;;;;4994558;28;93825;-73
2022/04/11 08:35:45;;;;;;;10.48;6.90;;;;;;;;;;4994156;28;93115;-73
2022/04/11 08:38:11;;;;;;;6.60;5.97;;;;;;;;;;4993539;28;92549;-73
2022/04/11 08:40:38;;;;;;;7.32;6.53;;;;;;;;;;4994118;28;92863;-73
2022/04/11 08:43:05;;;;;;;8.32;6.28;;;;;;;;;;4995497;28;96838;-73
2022/04/11 08:45:31;;;;;;;10.48;7.53;;;;;;;;;;4993242;28;96366;-73
2022/04/11 08:47:58;;;;;;;9.38;6.65;;;;;;;;;;4994025;28;93056;-73
2022/04/11 08:50:25;;;;;;;6.45;5.57;;;;;;;;;;4993671;28;92454;-73
2022/04/11 08:52:54;;;;;;;11.35;5.55;;;;;;;;;;4993418;28;93991;-73
2022/04/11 08:55:24;;;;;;;8.23;5.35;;;;;;;;;;4993989;28;94373;-73
2022/04/11 08:57:57;;;;;;;5.50;4.32;;;;;;;;;;4992934;28;92836;-73
2022/04/11 09:00:23;;;;;;;10.30;5.25;;;;;;;;;;4993662;28;93906;-73
2022/04/11 09:02:50;;;;;;;6.28;5.22;;;;;;;;;;4992185;28;95160;-73
2022/04/11 09:05:21;;;;;;;5.97;4.97;;;;;;;;;;4996395;28;92480;-73
2022/04/11 09:07:55;;;;;;;8.43;4.95;;;;;;;;;;4991197;28;96896;-73
2022/04/11 09:10:23;;;;;;;8.40;5.32;;;;;;;;;;4993692;28;92504;-74
2022/04/11 09:12:54;;;;;;;6.25;4.60;;;;;;;;;;4993755;28;93883;-74
2022/04/11 09:15:21;;;;;;;5.70;5.20;;;;;;;;;;4993349;28;93756;-73
2022/04/11 09:17:47;;;;;;;15.80;5.47;;;;;;;;;;4992779;28;92655;-73
2022/04/11 09:20:15;;;;;;;9.05;5.55;;;;;;;;;;4993291;28;93145;-73
2022/04/11 09:22:42;;;;;;;12.52;6.53;;;;;;;;;;4993061;28;93240;-73
2022/04/11 09:25:15;;;;;;;6.38;4.57;;;;;;;;;;4997237;28;91787;-73
2022/04/11 09:27:42;;;;;;;7.22;5.13;;;;;;;;;;4992420;28;93650;-73
2022/04/11 09:30:26;;;;;;;7.15;4.97;;;;;;;;;;4993439;28;92553;-77
2022/04/11 09:32:53;;;;;;;9.38;5.43;;;;;;;;;;4989435;28;95374;-72
2022/04/11 09:35:21;;;;;;;6.85;5.15;;;;;;;;;;4993017;28;93462;-73
2022/04/11 09:37:47;;;;;;;5.63;4.35;;;;;;;;;;4993479;28;92930;-72
2022/04/11 09:40:20;;;;;;;6.70;4.72;;;;;;;;;;4993276;28;93866;-72
2022/04/11 09:42:55;;;;;;;7.72;4.70;;;;;;;;;;4992403;28;94282;-72
2022/04/11 09:45:22;;;;;;;11.52;5.45;;;;;;;;;;4993093;28;92508;-73
2022/04/11 09:48:00;;;;;;;9.23;5.85;;;;;;;;;;4996120;28;93941;-72
2022/04/11 09:50:28;;;;;;;7.30;5.57;;;;;;;;;;4992633;28;91696;-72
2022/04/11 09:53:05;;;;;;;8.90;5.30;;;;;;;;;;4993074;28;92458;-73
2022/04/11 09:55:32;;;;;;;7.90;6.75;;;;;;;;;;4991858;28;94506;-72
2022/04/11 09:57:59;;;;;;;6.70;5.63;;;;;;;;;;4991562;28;94887;-73
2022/04/11 10:00:25;;;;;;;11.38;7.30;;;;;;;;;;4992852;28;96299;-72
2022/04/11 10:02:52;;;;;;;12.88;6.07;;;;;;;;;;4992245;28;93407;-72
2022/04/11 10:05:18;;;;;;;11.35;6.80;;;;;;;;;;4975416;28;92527;-73
2022/04/11 10:07:45;;;;;;;8.30;6.68;;;;;;;;;;4992145;28;94002;-73
2022/04/11 10:10:15;;;;;;;8.07;6.65;;;;;;;;;;4987185;28;93541;-73
2022/04/11 10:12:41;;;;;;;7.68;6.97;;;;;;;;;;4972763;28;93979;-73
2022/04/11 10:15:09;;;;;;;9.73;7.00;;;;;;;;;;4980757;28;92390;-73
2022/04/11 10:17:35;;;;;;;9.10;6.75;;;;;;;;;;4992096;28;92719;-73
2022/04/11 10:20:02;;;;;;;9.48;6.53;;;;;;;;;;4992553;28;93945;-73
2022/04/11 10:22:33;;;;;;;8.02;6.25;;;;;;;;;;4991031;28;94858;-74
2022/04/11 10:25:02;;;;;;;12.35;6.68;;;;;;;;;;4992751;28;92398;-73
2022/04/11 10:27:29;;;;;;;6.35;5.28;;;;;;;;;;4992577;28;94282;-74
2022/04/11 10:29:56;;;;;;;7.05;5.80;;;;;;;;;;4992738;28;94743;-73
2022/04/11 10:32:23;;;;;;;5.50;5.00;;;;;;;;;;4994750;28;92469;-73
2022/04/11 10:34:53;;;;;;;8.18;5.88;;;;;;;;;;4992311;28;94299;-73
2022/04/11 10:37:24;;;;;;;7.43;4.95;;;;;;;;;;4992370;28;92486;-74
2022/04/11 10:39:51;;;;;;;9.05;5.82;;;;;;;;;;4992935;28;94943;-73
2022/04/11 10:42:25;;;;;;;11.43;5.82;;;;;;;;;;4991855;28;93588;-74
2022/04/11 10:44:56;;;;;;;6.72;5.00;;;;;;;;;;4992131;28;93182;-73
2022/04/11 10:47:26;;;;;;;9.50;4.75;;;;;;;;;;4990760;28;94834;-73
2022/04/11 10:49:53;;;;;;;7.22;5.50;;;;;;;;;;4992082;28;94021;-73
2022/04/11 10:52:29;;;;;;;10.50;4.90;;;;;;;;;;4991832;28;92481;-73
2022/04/11 10:54:56;;;;;;;6.05;5.22;;;;;;;;;;4994723;28;93160;-71
2022/04/11 10:57:35;;;;;;;5.93;4.85;;;;;;;;;;4991657;28;92855;-73
2022/04/11 11:00:02;;;;;;;10.23;5.03;;;;;;;;;;4991513;28;93892;-73
2022/04/11 11:02:52;;;;;;;4.97;4.47;;;;;;;;;;4990413;28;93502;-73
2022/04/11 11:05:42;;;;;;;6.00;4.40;;;;;;;;;;4992341;28;91753;-73
2022/04/11 11:08:11;;;;;;;8.77;4.18;;;;;;;;;;4986374;28;93285;-73
2022/04/11 11:10:49;;;;;;;5.90;4.07;;;;;;;;;;4991480;28;93512;-73
2022/04/11 11:13:30;;;;;;;5.40;4.10;;;;;;;;;;4989817;28;94878;-73
2022/04/11 11:16:00;;;;;;;4.32;4.00;;;;;;;;;;4994603;28;96222;-73
2022/04/11 11:18:47;;;;;;;6.07;4.32;;;;;;;;;;4991893;28;93174;-73
2022/04/11 11:21:14;;;;;;;4.78;3.83;;;;;;;;;;4993761;28;93082;-73
2022/04/11 11:23:40;;;;;;;5.13;4.00;;;;;;;;;;4994677;28;94132;-73
2022/04/11 11:26:08;;;;;;;4.75;3.42;;;;;;;;;;4995459;28;92520;-73
2022/04/11 11:28:35;;;;;;;5.35;3.75;;;;;;;;;;4994189;28;92857;-73
2022/04/11 11:31:03;;;;;;;3.47;3.15;;;;;;;;;;4995657;28;93941;-73
2022/04/11 11:33:29;;;;;;;6.65;3.65;;;;;;;;;;4994610;28;93852;-73
2022/04/11 11:35:56;;;;;;;3.95;3.42;;;;;;;;;;4994576;28;93809;-73
2022/04/11 11:38:24;;;;;;;7.25;3.65;;;;;;;;;;4996044;28;96756;-74
2022/04/11 11:40:53;;;;;;;7.57;3.78;;;;;;;;;;4994306;28;96308;-74
2022/04/11 11:43:20;;;;;;;5.82;3.78;;;;;;;;;;4994891;28;94162;-73
2022/04/11 11:45:47;;;;;;;3.75;3.33;;;;;;;;;;4994974;28;92486;-73
2022/04/11 11:48:23;;;;;;;4.85;3.47;;;;;;;;;;4994281;28;94053;-74
2022/04/11 11:50:50;;;;;;;7.50;3.55;;;;;;;;;;4994774;28;94209;-73
2022/04/11 11:53:17;;;;;;;5.88;3.53;;;;;;;;;;4994917;28;93108;-73
2022/04/11 11:55:53;;;;;;;3.60;3.30;;;;;;;;;;4994236;28;92858;-73
2022/04/11 11:58:20;;;;;;;5.68;3.85;;;;;;;;;;4994707;28;94257;-73
2022/04/11 12:00:49;;;;;;;6.80;3.55;;;;;;;;;;4997916;28;93005;-73
2022/04/11 12:06:02;;;;;;;4.03;3.60;;;;;;;;;;4994095;28;92549;-73
2022/04/11 12:08:30;;;;;;;5.43;3.50;;;;;;;;;;4994368;28;93926;-73
2022/04/11 12:10:58;;;;;;;6.80;3.85;;;;;;;;;;4994640;28;93654;-72
2022/04/11 12:13:26;;;;;;;5.55;3.53;;;;;;;;;;4994415;28;92892;-73
2022/04/11 12:15:52;;;;;;;8.32;3.95;;;;;;;;;;4988514;28;92840;-73
2022/04/11 12:18:19;;;;;;;6.10;4.00;;;;;;;;;;4994241;28;93034;-73
2022/04/11 12:20:47;;;;;;;6.50;3.88;;;;;;;;;;4993494;28;91700;-73
2022/04/11 12:23:14;;;;;;;4.75;3.95;;;;;;;;;;4996826;28;93267;-73
2022/04/11 12:25:42;;;;;;;4.38;3.67;;;;;;;;;;4993951;28;92466;-73
2022/04/11 12:28:10;;;;;;;5.15;3.50;;;;;;;;;;4992816;28;94798;-73
2022/04/11 12:30:36;;;;;;;4.55;4.13;;;;;;;;;;4993000;28;94174;-71
2022/04/11 12:33:03;;;;;;;8.52;4.05;;;;;;;;;;4994240;28;92470;-72
2022/04/11 12:35:30;;;;;;;6.10;4.13;;;;;;;;;;4993545;28;93133;-72
2022/04/11 12:38:00;;;;;;;7.32;3.58;;;;;;;;;;4993264;28;94650;-73
2022/04/11 12:40:45;;;;;;;5.15;4.40;;;;;;;;;;4993848;28;92548;-72
2022/04/11 12:43:27;;;;;;;5.05;3.45;;;;;;;;;;4994450;28;92848;-73
2022/04/11 12:46:06;;;;;;;4.55;4.07;;;;;;;;;;4996735;28;92800;-73
2022/04/11 12:48:51;;;;;;;5.57;3.80;;;;;;;;;;4993830;28;92413;-72
2022/04/11 12:51:17;;;;;;;4.45;3.55;;;;;;;;;;4993352;28;94350;-73
2022/04/11 12:53:43;;;;;;;5.22;3.97;;;;;;;;;;4987367;28;94838;-73
2022/04/11 12:56:10;;;;;;;5.57;3.70;;;;;;;;;;4984518;28;96406;-73
2022/04/11 12:58:37;;;;;;;4.15;3.75;;;;;;;;;;4972501;28;94187;-73
2022/04/11 13:01:03;;;;;;;6.88;4.00;;;;;;;;;;4973700;28;92504;-73
2022/04/11 13:03:30;;;;;;;9.18;3.70;;;;;;;;;;4973520;28;94093;-73
2022/04/11 13:05:57;;;;;;;8.10;4.00;;;;;;;;;;4973496;28;93207;-73
2022/04/11 13:08:24;;;;;;;4.82;3.60;;;;;;;;;;4977119;28;92488;-73
2022/04/11 13:10:51;;;;;;;5.57;3.40;;;;;;;;;;4974462;28;92600;-73
2022/04/11 13:13:17;;;;;;;4.85;3.47;;;;;;;;;;4987958;28;92552;-74
2022/04/11 13:18:29;;;;;;;7.18;3.80;;;;;;;;;;4991396;28;96455;-73
2022/04/11 13:20:55;;;;;;;4.53;4.03;;;;;;;;;;4992830;28;93088;-73
2022/04/11 13:23:22;;;;;;;11.25;3.78;;;;;;;;;;4992926;28;93967;-73
2022/04/11 13:25:48;;;;;;;5.60;4.28;;;;;;;;;;4993135;28;94240;-73
2022/04/11 13:28:25;;;;;;;8.02;3.72;;;;;;;;;;4995590;28;92533;-73
2022/04/11 13:30:53;;;;;;;5.47;4.05;;;;;;;;;;4993363;28;94572;-73
2022/04/11 13:33:20;;;;;;;7.32;4.30;;;;;;;;;;4992447;28;92598;-75
2022/04/11 13:35:46;;;;;;;5.57;4.05;;;;;;;;;;4983148;28;94231;-73
2022/04/11 13:38:13;;;;;;;5.90;4.20;;;;;;;;;;4981752;28;93278;-73
2022/04/11 13:40:39;;;;;;;6.32;4.20;;;;;;;;;;4974409;28;92464;-73
2022/04/11 13:43:05;;;;;;;5.78;3.55;;;;;;;;;;4990783;28;94863;-73
2022/04/11 13:45:39;;;;;;;10.80;4.82;;;;;;;;;;4986131;28;93882;-73
2022/04/11 13:48:05;;;;;;;6.93;4.38;;;;;;;;;;4981261;28;92551;-73
2022/04/11 13:50:32;;;;;;;9.63;4.05;;;;;;;;;;4986255;28;93951;-74
2022/04/11 13:52:58;;;;;;;5.75;4.35;;;;;;;;;;4982070;28;93852;-73
2022/04/11 13:55:25;;;;;;;8.35;4.20;;;;;;;;;;4983521;28;94018;-73
2022/04/11 13:57:51;;;;;;;8.70;4.72;;;;;;;;;;4985587;28;93884;-73
2022/04/11 14:00:18;;;;;;;9.98;4.57;;;;;;;;;;4988231;28;93163;-74
2022/04/11 14:02:45;;;;;;;6.35;4.80;;;;;;;;;;4984815;28;94116;-73
2022/04/11 14:05:12;;;;;;;7.82;4.20;;;;;;;;;;4990993;28;94757;-73
2022/04/11 14:07:38;;;;;;;7.82;4.45;;;;;;;;;;4983317;28;95025;-73
2022/04/11 14:10:09;;;;;;;5.85;4.43;;;;;;;;;;4986323;28;98055;-73
2022/04/11 14:12:36;;;;;;;5.07;4.53;;;;;;;;;;4994026;28;94284;-73
2022/04/11 14:15:02;;;;;;;5.38;4.07;;;;;;;;;;4980630;28;92876;-73
2022/04/11 14:17:29;;;;;;;5.10;4.40;;;;;;;;;;4982498;27;93246;-74
2022/04/11 14:19:55;;;;;;;5.22;4.07;;;;;;;;;;4990355;28;93057;-74
2022/04/11 14:22:21;;;;;;;8.35;4.28;;;;;;;;;;4986484;28;94114;-73
2022/04/11 14:24:48;;;;;;;6.50;4.03;;;;;;;;;;4982036;28;93449;-74
2022/04/11 14:27:14;;;;;;;11.95;4.50;;;;;;;;;;4983395;28;92796;-74
2022/04/11 14:29:43;;;;;;;4.18;3.78;;;;;;;;;;4983826;28;94425;-74
2022/04/11 14:32:10;;;;;;;12.32;5.25;;;;;;;;;;4981231;28;96118;-75
2022/04/11 14:34:36;;;;;;;5.80;4.35;;;;;;;;;;4988352;28;93247;-74
2022/04/11 14:37:03;;;;;;;12.55;4.75;;;;;;;;;;4986168;28;93747;-73
2022/04/11 14:39:30;;;;;;;6.68;4.40;;;;;;;;;;4976650;28;93478;-73
2022/04/11 14:41:56;;;;;;;5.13;4.63;;;;;;;;;;4988924;28;95079;-73
2022/04/11 14:44:23;;;;;;;9.38;4.88;;;;;;;;;;4983540;28;94788;-72
2022/04/11 14:46:49;;;;;;;5.43;4.57;;;;;;;;;;4977223;28;94352;-73
2022/04/11 14:49:16;;;;;;;9.13;4.35;;;;;;;;;;4994205;28;94079;-71
2022/04/11 14:52:02;;;;;;;4.75;3.80;;;;;;;;;;4985531;28;94295;-71